Time;durP1;ratioP1;P1;durP2;ratioP2;P2;SDS_P1;SDS_P2;PMS_P1;PMS_P2;Temp;Humidity;BMP_temperature;BMP_pressure;BME280_temperature;BME280_humidity;BME280_pressure;Samples;Min_cycle;Max_cycle;Signal;HPM_P1;HPM_P2
2022/05/11 00:00:59;;;;;;;5.85;2.60;;;13.90;99.90;;;;;;5114706;27;20047;-77
2022/05/11 00:03:25;;;;;;;9.73;2.85;;;13.90;99.90;;;;;;5115038;27;20099;-77
2022/05/11 00:05:50;;;;;;;8.07;2.40;;;13.90;99.90;;;;;;5115040;27;20043;-77
2022/05/11 00:08:16;;;;;;;3.75;2.28;;;13.90;99.90;;;;;;5114856;27;20042;-78
2022/05/11 00:10:42;;;;;;;5.68;2.47;;;13.90;99.90;;;;;;5132946;27;20119;-77
2022/05/11 00:13:08;;;;;;;8.55;2.70;;;14.00;99.90;;;;;;5114763;27;20040;-77
2022/05/11 00:15:34;;;;;;;6.80;2.72;;;14.00;99.90;;;;;;5097837;27;20031;-78
2022/05/11 00:18:00;;;;;;;4.65;2.60;;;14.00;99.90;;;;;;5114641;27;20091;-77
2022/05/11 00:20:26;;;;;;;3.60;2.53;;;14.00;99.90;;;;;;5114562;27;20039;-77
2022/05/11 00:22:56;;;;;;;4.03;2.42;;;14.00;99.90;;;;;;5114665;27;20062;-77
2022/05/11 00:25:26;;;;;;;6.03;2.55;;;14.00;99.90;;;;;;5114124;27;20046;-77
2022/05/11 00:27:56;;;;;;;4.03;3.08;;;14.00;99.90;;;;;;5114844;27;20047;-77
2022/05/11 00:30:23;;;;;;;4.28;2.50;;;14.00;99.90;;;;;;5114751;27;20367;-77
2022/05/11 00:32:52;;;;;;;3.75;2.55;;;14.00;99.90;;;;;;5132982;27;20039;-78
2022/05/11 00:35:18;;;;;;;4.68;2.38;;;14.00;99.90;;;;;;5129173;27;20088;-77
2022/05/11 00:37:44;;;;;;;5.18;2.75;;;14.00;99.90;;;;;;5121581;27;20127;-78
2022/05/11 00:40:10;;;;;;;3.40;2.28;;;14.00;99.90;;;;;;5128804;27;20039;-77
2022/05/11 00:42:35;;;;;;;4.82;2.50;;;13.90;99.90;;;;;;5116561;27;20118;-78
2022/05/11 00:45:03;;;;;;;5.35;2.67;;;13.90;99.90;;;;;;5114196;27;20047;-78
2022/05/11 00:47:35;;;;;;;5.57;2.60;;;13.90;99.90;;;;;;5114640;27;20039;-77
2022/05/11 00:50:07;;;;;;;7.22;3.08;;;13.90;99.90;;;;;;5098295;27;20043;-77
2022/05/11 00:52:41;;;;;;;7.18;2.42;;;13.90;99.90;;;;;;5114609;27;20052;-77
2022/05/11 00:55:32;;;;;;;5.60;2.60;;;13.90;99.90;;;;;;5113786;27;20459;-78
2022/05/11 00:58:12;;;;;;;6.40;2.80;;;13.90;99.90;;;;;;5097329;27;20079;-78
2022/05/11 01:00:38;;;;;;;6.85;2.90;;;13.90;99.90;;;;;;5113793;27;20076;-78
2022/05/11 01:03:09;;;;;;;10.52;2.88;;;13.90;99.90;;;;;;5132442;27;20075;-78
2022/05/11 01:05:35;;;;;;;5.90;3.13;;;13.80;99.90;;;;;;5114309;27;20168;-77
2022/05/11 01:08:01;;;;;;;8.15;3.30;;;13.80;99.90;;;;;;5114180;27;20133;-78
2022/05/11 01:10:30;;;;;;;4.43;2.90;;;13.80;99.90;;;;;;5113357;27;20149;-78
2022/05/11 01:13:08;;;;;;;6.13;3.05;;;13.90;99.90;;;;;;5114094;27;20074;-78
2022/05/11 01:15:34;;;;;;;4.85;3.53;;;13.90;99.90;;;;;;5114238;28;20061;-78
2022/05/11 01:18:06;;;;;;;5.63;3.20;;;13.90;99.90;;;;;;5113777;27;20490;-78
2022/05/11 01:20:33;;;;;;;;;;;13.90;99.90;;;;;;5113647;27;20039;-78
2022/05/11 01:23:41;;;;;;;5.43;2.42;;;13.90;99.90;;;;;;5132044;27;19922;-78
2022/05/11 01:26:07;;;;;;;6.90;3.10;;;13.90;99.90;;;;;;5011906;28;20064;-78
2022/05/11 01:28:33;;;;;;;6.70;2.92;;;13.90;99.90;;;;;;5098058;27;20059;-78
2022/05/11 01:31:07;;;;;;;6.38;3.72;;;13.90;99.90;;;;;;5113501;28;20039;-78
2022/05/11 01:33:35;;;;;;;5.95;3.50;;;13.90;99.90;;;;;;5113758;28;20039;-78
2022/05/11 01:36:26;;;;;;;6.80;3.05;;;13.90;99.90;;;;;;5113324;28;20470;-77
2022/05/11 01:38:56;;;;;;;10.02;3.28;;;13.90;99.90;;;;;;5113473;28;20043;-77
2022/05/11 01:41:32;;;;;;;5.47;3.00;;;13.90;99.90;;;;;;5113214;28;20160;-78
2022/05/11 01:43:59;;;;;;;6.57;3.00;;;13.90;99.90;;;;;;5096356;28;20039;-77
2022/05/11 01:46:25;;;;;;;7.63;3.30;;;13.90;99.90;;;;;;5113686;28;20661;-77
2022/05/11 01:48:51;;;;;;;8.65;2.95;;;13.90;99.90;;;;;;5113393;28;20047;-77
2022/05/11 01:51:19;;;;;;;8.50;3.22;;;13.90;99.90;;;;;;5113085;28;20443;-77
2022/05/11 01:53:45;;;;;;;4.55;2.90;;;13.90;99.90;;;;;;5113315;28;20079;-77
2022/05/11 01:56:14;;;;;;;8.95;2.95;;;13.90;99.90;;;;;;5096282;28;20047;-77
2022/05/11 01:58:40;;;;;;;6.95;2.95;;;14.00;99.90;;;;;;5113218;28;20161;-76
2022/05/11 02:01:06;;;;;;;6.25;2.50;;;14.00;99.90;;;;;;5112798;28;20114;-78
2022/05/11 02:03:32;;;;;;;11.77;3.30;;;13.90;99.90;;;;;;5114811;27;20054;-78
2022/05/11 02:08:43;;;;;;;9.95;4.60;;;13.90;99.90;;;;;;5117417;27;20120;-77
2022/05/11 02:11:10;;;;;;;8.55;3.30;;;13.90;99.90;;;;;;5116722;27;20042;-77
2022/05/11 02:13:36;;;;;;;5.70;2.97;;;13.90;99.90;;;;;;5117468;27;20783;-76
2022/05/11 02:16:02;;;;;;;6.28;3.80;;;13.90;99.90;;;;;;5117593;27;20074;-76
2022/05/11 02:18:28;;;;;;;5.63;2.70;;;13.90;99.90;;;;;;5117215;27;20043;-75
2022/05/11 02:20:54;;;;;;;5.35;3.20;;;13.90;99.90;;;;;;5116867;27;20035;-75
2022/05/11 02:23:21;;;;;;;6.32;2.72;;;13.90;99.90;;;;;;5099931;27;20493;-75
2022/05/11 02:25:49;;;;;;;7.15;3.45;;;13.90;99.90;;;;;;5117026;27;20080;-76
2022/05/11 02:28:16;;;;;;;5.90;3.33;;;13.90;99.90;;;;;;5117091;27;20390;-75
2022/05/11 02:30:43;;;;;;;6.93;3.67;;;13.90;99.90;;;;;;5116729;27;20114;-76
2022/05/11 02:33:09;;;;;;;7.63;2.67;;;13.90;99.90;;;;;;5135226;27;20039;-78
2022/05/11 02:35:35;;;;;;;6.10;2.88;;;13.80;99.90;;;;;;5117002;27;20042;-76
2022/05/11 02:38:04;;;;;;;6.75;2.80;;;13.80;99.90;;;;;;5100194;27;20039;-77
2022/05/11 02:40:34;;;;;;;7.38;3.35;;;13.80;99.90;;;;;;5116446;27;20039;-76
2022/05/11 02:43:02;;;;;;;6.57;3.13;;;13.80;99.90;;;;;;5116715;27;20081;-76
2022/05/11 02:45:30;;;;;;;4.28;2.53;;;13.80;99.90;;;;;;5116887;27;20035;-76
2022/05/11 02:47:57;;;;;;;5.90;3.53;;;13.80;99.90;;;;;;5117014;27;20405;-76
2022/05/11 02:50:27;;;;;;;8.40;3.28;;;13.80;99.90;;;;;;5134652;27;20039;-75
2022/05/11 02:52:53;;;;;;;6.15;2.50;;;13.80;99.90;;;;;;5116373;27;20060;-76
2022/05/11 02:55:19;;;;;;;6.25;3.45;;;13.80;99.90;;;;;;5116371;27;20051;-76
2022/05/11 02:57:44;;;;;;;7.15;2.83;;;13.80;99.90;;;;;;5116971;27;20371;-76
2022/05/11 03:00:13;;;;;;;7.63;3.08;;;13.80;99.90;;;;;;5116011;27;20047;-76
2022/05/11 03:02:39;;;;;;;7.60;3.35;;;13.80;99.90;;;;;;5116360;27;20482;-75
2022/05/11 03:05:05;;;;;;;5.43;2.75;;;13.80;99.90;;;;;;5116403;27;20042;-76
2022/05/11 03:07:31;;;;;;;8.43;3.50;;;13.80;99.90;;;;;;5116111;27;20039;-76
2022/05/11 03:09:56;;;;;;;11.25;3.13;;;13.80;99.90;;;;;;5115872;27;20546;-76
2022/05/11 03:12:22;;;;;;;8.40;3.25;;;13.80;99.90;;;;;;5134869;27;20043;-76
2022/05/11 03:14:49;;;;;;;5.38;3.20;;;13.80;99.90;;;;;;5114985;28;20130;-76
2022/05/11 03:17:15;;;;;;;4.63;2.65;;;13.90;99.90;;;;;;5116266;27;20450;-76
2022/05/11 03:19:41;;;;;;;7.25;2.80;;;13.80;99.90;;;;;;5115700;27;20050;-76
2022/05/11 03:22:06;;;;;;;8.20;3.75;;;13.90;99.90;;;;;;5115859;27;20043;-76
2022/05/11 03:24:32;;;;;;;7.07;3.20;;;13.80;99.90;;;;;;5115765;27;20401;-75
2022/05/11 03:26:58;;;;;;;4.55;2.67;;;13.80;99.90;;;;;;5116002;27;20075;-76
2022/05/11 03:29:23;;;;;;;5.22;2.78;;;13.80;99.90;;;;;;5115813;27;20046;-76
2022/05/11 03:34:37;;;;;;;7.80;3.35;;;13.80;99.90;;;;;;5115668;27;20051;-76
2022/05/11 03:37:04;;;;;;;8.13;3.20;;;13.80;99.90;;;;;;5115791;27;20088;-76
2022/05/11 03:39:30;;;;;;;9.70;3.75;;;13.80;99.90;;;;;;5115348;27;20051;-77
2022/05/11 03:41:56;;;;;;;9.65;3.15;;;13.80;99.90;;;;;;5115524;27;20533;-76
2022/05/11 03:44:21;;;;;;;7.35;3.08;;;13.80;99.90;;;;;;5115480;27;20072;-76
2022/05/11 03:46:47;;;;;;;8.82;3.33;;;13.80;99.90;;;;;;5116252;27;20158;-78
2022/05/11 03:49:14;;;;;;;7.43;2.80;;;13.80;99.90;;;;;;5115375;27;20047;-76
2022/05/11 03:51:40;;;;;;;6.38;3.30;;;13.70;99.90;;;;;;5133348;27;20127;-76
2022/05/11 03:54:06;;;;;;;7.88;3.42;;;13.80;99.90;;;;;;5116500;27;20651;-76
2022/05/11 03:56:32;;;;;;;6.25;4.38;;;13.80;99.90;;;;;;5115424;27;20137;-76
2022/05/11 03:58:58;;;;;;;13.55;3.85;;;13.80;99.90;;;;;;5115241;27;20071;-76
2022/05/11 04:01:24;;;;;;;5.40;3.63;;;13.70;99.90;;;;;;5097810;27;20098;-77
2022/05/11 04:03:49;;;;;;;13.23;3.75;;;13.70;99.90;;;;;;5115187;27;20042;-76
2022/05/11 04:06:15;;;;;;;8.05;3.47;;;13.70;99.90;;;;;;5115455;27;20046;-77
2022/05/11 04:08:42;;;;;;;10.18;3.47;;;13.70;99.90;;;;;;5133511;27;20482;-77
2022/05/11 04:11:07;;;;;;;8.02;4.20;;;13.70;99.90;;;;;;5106897;27;20058;-78
2022/05/11 04:13:33;;;;;;;6.32;3.33;;;13.70;99.90;;;;;;5134835;27;20047;-77
2022/05/11 04:15:59;;;;;;;9.02;3.72;;;13.70;99.90;;;;;;5127864;27;20095;-77
2022/05/11 04:18:24;;;;;;;12.55;3.40;;;13.70;99.90;;;;;;5114659;27;20071;-78
2022/05/11 04:20:50;;;;;;;5.30;2.83;;;13.70;99.90;;;;;;5114439;27;20031;-79
2022/05/11 04:23:16;;;;;;;6.43;3.38;;;13.70;99.90;;;;;;5114626;27;20076;-77
2022/05/11 04:25:41;;;;;;;10.30;3.20;;;13.70;99.90;;;;;;5114502;27;20088;-77
2022/05/11 04:28:12;;;;;;;9.13;3.30;;;13.80;99.90;;;;;;5114673;27;20042;-78
2022/05/11 04:30:38;;;;;;;7.53;3.40;;;13.80;99.90;;;;;;5114195;27;20489;-77
2022/05/11 04:33:05;;;;;;;5.38;2.97;;;13.80;99.90;;;;;;5114619;27;20035;-78
2022/05/11 04:35:31;;;;;;;6.72;3.28;;;13.80;99.90;;;;;;5114390;27;20524;-78
2022/05/11 04:37:57;;;;;;;9.48;3.65;;;13.80;99.90;;;;;;5114355;27;20043;-78
2022/05/11 04:40:23;;;;;;;6.95;3.40;;;13.80;99.90;;;;;;5113866;27;20118;-78
2022/05/11 04:42:49;;;;;;;7.20;3.53;;;13.80;99.90;;;;;;5132667;27;20508;-77
2022/05/11 04:45:16;;;;;;;22.02;10.40;;;13.80;99.90;;;;;;5114297;27;20039;-78
2022/05/11 04:47:42;;;;;;;10.40;4.03;;;13.90;99.90;;;;;;5131538;27;20495;-77
2022/05/11 04:50:09;;;;;;;6.75;3.85;;;13.90;99.90;;;;;;5113859;27;20137;-76
2022/05/11 04:52:35;;;;;;;7.82;3.45;;;13.90;99.90;;;;;;5114492;27;20050;-77
2022/05/11 04:55:00;;;;;;;6.13;3.35;;;14.00;99.90;;;;;;5114192;27;20043;-77
2022/05/11 04:57:26;;;;;;;8.98;3.75;;;14.00;99.90;;;;;;5114347;27;20054;-77
2022/05/11 04:59:51;;;;;;;9.73;3.80;;;14.00;99.90;;;;;;5096873;27;20047;-77
2022/05/11 05:02:19;;;;;;;8.68;3.53;;;14.10;99.90;;;;;;5114138;27;20062;-77
2022/05/11 05:04:45;;;;;;;4.85;3.13;;;14.10;99.90;;;;;;5114063;27;20043;-77
2022/05/11 05:07:11;;;;;;;9.45;3.42;;;14.10;99.90;;;;;;5114412;27;20490;-77
2022/05/11 05:09:37;;;;;;;6.22;3.20;;;14.10;99.90;;;;;;5113767;27;20480;-77
2022/05/11 05:12:04;;;;;;;9.82;4.18;;;14.10;99.90;;;;;;5113946;27;20126;-76
2022/05/11 05:14:29;;;;;;;10.52;4.10;;;14.20;99.90;;;;;;5096982;27;20043;-77
2022/05/11 05:17:00;;;;;;;12.05;4.20;;;14.20;99.90;;;;;;5132309;27;20053;-77
2022/05/11 05:19:26;;;;;;;6.95;3.63;;;14.30;99.90;;;;;;5113675;27;20119;-77
2022/05/11 05:21:51;;;;;;;12.48;5.53;;;14.30;99.90;;;;;;5097082;27;20436;-76
2022/05/11 05:24:17;;;;;;;8.70;3.70;;;14.30;99.90;;;;;;5097030;28;20078;-77
2022/05/11 05:26:42;;;;;;;5.85;3.05;;;14.40;99.90;;;;;;5114097;27;20119;-77
2022/05/11 05:31:52;;;;;;;7.32;3.00;;;14.50;99.90;;;;;;5113674;28;20072;-77
2022/05/11 05:34:18;;;;;;;9.30;3.38;;;14.50;99.90;;;;;;5113713;28;20039;-77
2022/05/11 05:36:43;;;;;;;9.13;5.20;;;14.60;99.90;;;;;;5113557;28;20051;-77
2022/05/11 05:39:09;;;;;;;7.00;3.85;;;14.80;99.90;;;;;;5134428;27;20108;-77
2022/05/11 05:41:35;;;;;;;6.75;3.55;;;14.90;99.90;;;;;;5117444;27;20078;-77
2022/05/11 05:44:00;;;;;;;10.70;3.70;;;14.90;99.90;;;;;;5118376;27;20043;-75
2022/05/11 05:46:26;;;;;;;8.88;3.60;;;15.00;99.90;;;;;;5117893;27;20050;-77
2022/05/11 05:48:52;;;;;;;8.30;3.60;;;15.10;99.90;;;;;;5117515;27;20564;-75
2022/05/11 05:51:20;;;;;;;10.10;3.28;;;15.10;99.90;;;;;;5100119;27;20130;-77
2022/05/11 05:53:45;;;;;;;4.90;3.35;;;15.20;99.90;;;;;;5117916;27;20072;-78
2022/05/11 05:56:13;;;;;;;8.38;4.18;;;15.20;99.90;;;;;;5117562;27;20043;-78
2022/05/11 05:58:40;;;;;;;7.35;3.20;;;15.20;99.90;;;;;;5117154;27;20150;-78
2022/05/11 06:01:05;;;;;;;7.47;3.33;;;15.20;99.90;;;;;;5116969;27;20074;-77
2022/05/11 06:03:34;;;;;;;9.45;3.50;;;15.20;99.90;;;;;;5117168;27;20493;-77
2022/05/11 06:05:59;;;;;;;10.82;2.60;;;15.20;99.90;;;;;;5117157;27;20050;-77
2022/05/11 06:08:25;;;;;;;6.43;3.13;;;15.20;99.90;;;;;;5117390;27;20035;-76
2022/05/11 06:10:53;;;;;;;8.20;3.13;;;15.30;99.90;;;;;;5116598;27;20039;-77
2022/05/11 06:13:23;;;;;;;7.03;3.22;;;15.30;99.90;;;;;;5116885;27;20035;-76
2022/05/11 06:15:51;;;;;;;7.00;3.15;;;15.40;99.90;;;;;;5117377;27;20554;-77
2022/05/11 06:18:17;;;;;;;6.75;3.60;;;15.50;99.90;;;;;;5117057;27;20043;-78
2022/05/11 06:20:42;;;;;;;8.95;4.07;;;15.50;99.90;;;;;;5116479;27;20043;-77
2022/05/11 06:23:08;;;;;;;7.78;2.70;;;15.60;99.90;;;;;;5116798;27;20062;-78
2022/05/11 06:25:39;;;;;;;8.07;3.13;;;15.70;99.90;;;;;;5116590;27;20035;-78
2022/05/11 06:28:09;;;;;;;7.78;2.85;;;15.90;99.90;;;;;;5116830;27;20042;-78
2022/05/11 06:30:35;;;;;;;8.20;3.10;;;16.10;99.90;;;;;;5116469;27;20046;-77
2022/05/11 06:33:01;;;;;;;6.05;2.10;;;16.30;99.90;;;;;;5116551;27;20039;-77
2022/05/11 06:35:28;;;;;;;9.55;2.45;;;16.50;99.90;;;;;;5116564;27;20042;-78
2022/05/11 06:37:54;;;;;;;8.73;2.30;;;16.60;99.90;;;;;;5116446;27;20043;-77
2022/05/11 06:40:21;;;;;;;6.25;2.15;;;16.80;99.90;;;;;;5115877;27;20055;-77
2022/05/11 06:42:48;;;;;;;6.00;1.50;;;16.90;99.90;;;;;;5116700;27;20035;-80
2022/05/11 06:45:15;;;;;;;5.45;1.67;;;17.10;99.90;;;;;;5118200;27;20043;-80
2022/05/11 06:47:41;;;;;;;4.55;1.40;;;17.10;99.90;;;;;;5116292;27;20039;-80
2022/05/11 06:50:08;;;;;;;9.00;1.73;;;17.20;99.90;;;;;;5116197;27;20054;-79
2022/05/11 06:52:34;;;;;;;7.15;2.08;;;17.30;99.90;;;;;;5116452;27;20126;-77
2022/05/11 07:00:33;;;;;;;7.35;2.03;;;17.80;99.90;;;;;;5136120;27;20104;-77
2022/05/11 07:02:59;;;;;;;6.47;1.50;;;18.00;99.90;;;;;;5116610;27;20061;-78
2022/05/11 07:05:25;;;;;;;7.60;2.08;;;18.10;99.90;;;;;;5116399;27;20039;-77
2022/05/11 07:07:52;;;;;;;7.40;1.90;;;18.30;99.90;;;;;;5134538;27;20042;-77
2022/05/11 07:10:18;;;;;;;8.82;1.77;;;18.20;99.90;;;;;;5115484;27;20043;-77
2022/05/11 07:12:46;;;;;;;13.38;2.33;;;18.20;99.90;;;;;;5115961;27;20051;-78
2022/05/11 07:15:12;;;;;;;6.57;1.70;;;18.10;99.90;;;;;;5115914;27;20118;-78
2022/05/11 07:17:42;;;;;;;6.85;1.70;;;18.10;99.90;;;;;;5115908;27;20047;-78
2022/05/11 07:20:14;;;;;;;5.03;1.40;;;18.30;99.90;;;;;;5115771;27;20126;-78
2022/05/11 07:22:40;;;;;;;4.85;1.38;;;18.60;99.90;;;;;;5117621;27;20039;-79
2022/05/11 07:25:08;;;;;;;3.00;1.70;;;18.70;99.90;;;;;;5101359;27;20092;-80
2022/05/11 07:27:34;;;;;;;6.60;1.48;;;18.60;99.90;;;;;;5134777;27;20039;-78
2022/05/11 07:30:01;;;;;;;7.57;1.70;;;18.50;99.90;;;;;;5115898;27;20061;-78
2022/05/11 07:32:27;;;;;;;6.70;1.50;;;18.30;99.90;;;;;;5099816;27;20075;-79
2022/05/11 07:34:53;;;;;;;7.70;1.40;;;18.40;99.90;;;;;;5099677;27;20078;-78
2022/05/11 07:37:19;;;;;;;9.05;1.63;;;18.40;99.90;;;;;;5117005;27;20099;-79
2022/05/11 07:39:45;;;;;;;4.50;1.08;;;18.40;99.90;;;;;;5115967;27;20075;-78
2022/05/11 07:42:10;;;;;;;2.85;0.80;;;18.40;99.90;;;;;;5119873;27;20197;-79
2022/05/11 07:44:36;;;;;;;3.35;1.08;;;18.20;99.90;;;;;;5118280;27;20031;-79
2022/05/11 07:47:02;;;;;;;5.53;1.15;;;18.10;99.90;;;;;;5100833;27;20039;-79
2022/05/11 07:49:27;;;;;;;3.35;1.00;;;18.00;99.90;;;;;;5100676;27;20581;-78
2022/05/11 07:51:53;;;;;;;5.68;1.40;;;17.90;99.90;;;;;;5100287;27;20522;-79
2022/05/11 07:54:20;;;;;;;3.17;1.08;;;17.80;99.90;;;;;;5117631;27;20039;-79
2022/05/11 08:02:15;;;;;;;5.18;1.10;;;18.30;99.90;;;;;;5136394;27;20043;-78
2022/05/11 08:04:41;;;;;;;4.63;0.85;;;19.00;99.90;;;;;;5138266;27;20031;-79
2022/05/11 08:07:08;;;;;;;6.45;0.90;;;19.70;99.90;;;;;;5110554;27;20038;-79
2022/05/11 08:09:34;;;;;;;5.35;1.30;;;20.10;99.90;;;;;;5117120;27;20451;-79
2022/05/11 08:12:00;;;;;;;7.10;1.33;;;20.60;99.90;;;;;;5115638;27;20177;-80
2022/05/11 08:14:26;;;;;;;5.40;1.15;;;21.20;99.90;;;;;;5115647;27;20409;-80
2022/05/11 08:16:52;;;;;;;6.45;1.15;;;21.50;99.90;;;;;;5115147;27;20043;-79
2022/05/11 08:19:26;;;;;;;7.50;1.52;;;21.60;99.90;;;;;;5115430;27;20231;-79
2022/05/11 08:21:53;;;;;;;5.72;1.20;;;21.60;97.10;;;;;;5114845;27;20046;-78
2022/05/11 08:24:19;;;;;;;6.13;1.50;;;21.60;99.90;;;;;;5115018;27;20088;-79
2022/05/11 08:26:51;;;;;;;4.72;1.17;;;21.50;99.40;;;;;;5115020;27;20035;-81
2022/05/11 08:34:49;;;;;;;5.18;1.35;;;21.90;98.90;;;;;;5115540;27;20066;-80
2022/05/11 08:37:14;;;;;;;4.00;1.35;;;22.30;97.80;;;;;;5114900;27;20496;-80
2022/05/11 08:39:41;;;;;;;6.03;1.83;;;22.40;93.40;;;;;;5097467;27;20074;-80
2022/05/11 08:42:07;;;;;;;7.55;1.13;;;22.50;93.80;;;;;;5114768;27;20126;-80
2022/05/11 08:44:36;;;;;;;5.93;1.52;;;22.70;92.90;;;;;;5098040;27;20039;-79
2022/05/11 08:47:32;;;;;;;6.78;1.25;;;22.60;91.90;;;;;;5099540;27;20042;-81
2022/05/11 08:50:11;;;;;;;10.65;1.55;;;22.90;81.10;;;;;;5115879;27;20043;-81
2022/05/11 08:52:52;;;;;;;4.43;1.05;;;23.00;88.60;;;;;;5100313;27;20062;-82
2022/05/11 08:56:02;;;;;;;7.03;1.50;;;23.10;82.70;;;;;;5115003;27;20170;-80
2022/05/11 08:58:42;;;;;;;10.68;1.25;;;23.00;77.90;;;;;;5014247;28;20060;-82
2022/05/11 09:01:15;;;;;;;6.75;1.30;;;22.70;79.80;;;;;;5106315;27;20505;-82
2022/05/11 09:03:44;;;;;;;7.95;1.23;;;22.60;76.40;;;;;;5115799;27;20074;-80
2022/05/11 09:06:24;;;;;;;3.65;1.33;;;22.60;79.80;;;;;;5134700;27;20053;-80
2022/05/11 09:08:51;;;;;;;5.35;1.00;;;22.70;73.80;;;;;;5115997;27;20043;-81
2022/05/11 09:11:28;;;;;;;5.53;1.08;;;22.50;78.30;;;;;;5099119;27;20085;-80
2022/05/11 09:13:56;;;;;;;5.60;1.27;;;22.50;74.40;;;;;;5115323;27;20047;-80
2022/05/11 09:16:28;;;;;;;5.55;1.50;;;22.70;76.20;;;;;;5116714;27;20042;-80
2022/05/11 09:18:56;;;;;;;6.65;1.58;;;22.80;76.60;;;;;;5116028;27;20039;-81
2022/05/11 09:21:32;;;;;;;5.28;1.42;;;22.90;77.40;;;;;;5133692;27;20058;-80
2022/05/11 09:24:18;;;;;;;6.13;1.30;;;23.00;67.80;;;;;;5115555;28;20031;-78
2022/05/11 09:26:46;;;;;;;6.10;1.15;;;23.20;74.90;;;;;;5116493;28;20035;-80
2022/05/11 09:29:31;;;;;;;8.48;1.25;;;23.40;73.10;;;;;;5115637;27;20396;-80
2022/05/11 09:32:37;;;;;;;7.65;1.48;;;23.50;67.60;;;;;;5117191;28;20043;-81
2022/05/11 09:35:25;;;;;;;5.50;1.17;;;23.70;64.20;;;;;;5115255;28;20050;-79
2022/05/11 09:38:17;;;;;;;3.63;1.00;;;23.60;64.50;;;;;;5116005;28;20051;-81
2022/05/11 09:41:00;;;;;;;4.90;1.52;;;23.40;65.50;;;;;;5116589;28;20049;-81
2022/05/11 09:43:41;;;;;;;2.95;1.10;;;23.30;64.40;;;;;;5135235;28;20043;-81
2022/05/11 09:46:23;;;;;;;3.88;1.10;;;23.50;63.80;;;;;;5099793;28;20050;-81
2022/05/11 09:48:59;;;;;;;3.53;1.17;;;23.50;62.80;;;;;;5098206;28;20047;-80
2022/05/11 09:51:39;;;;;;;5.55;0.80;;;23.50;64.10;;;;;;5115253;28;20047;-81
2022/05/11 09:54:38;;;;;;;1.90;0.60;;;23.50;62.40;;;;;;5115381;28;20501;-80
2022/05/11 09:57:17;;;;;;;3.28;1.00;;;23.50;59.20;;;;;;5133277;28;20546;-81
2022/05/11 09:59:50;;;;;;;4.78;0.77;;;23.50;61.60;;;;;;5115867;28;20118;-79
2022/05/11 10:02:32;;;;;;;4.68;0.68;;;23.50;58.80;;;;;;5115954;28;20046;-79
2022/05/11 10:05:24;;;;;;;4.07;0.70;;;23.60;59.50;;;;;;5119967;28;20039;-80
2022/05/11 10:08:01;;;;;;;3.88;0.70;;;23.70;59.50;;;;;;5116962;28;20042;-80
2022/05/11 10:10:49;;;;;;;3.88;0.85;;;23.70;59.00;;;;;;5099903;28;20045;-80
2022/05/11 10:13:21;;;;;;;3.08;1.00;;;23.80;56.30;;;;;;5116703;28;20046;-80
2022/05/11 10:21:56;;;;;;;6.15;1.13;;;23.50;58.80;;;;;;5112970;28;20103;-80
2022/05/11 10:24:36;;;;;;;2.45;0.88;;;23.50;58.20;;;;;;5097954;27;20485;-79
2022/05/11 10:27:34;;;;;;;6.00;1.02;;;23.60;57.80;;;;;;5100656;27;20613;-80
2022/05/11 10:30:25;;;;;;;3.75;0.93;;;23.60;56.70;;;;;;5121172;27;20054;-80
2022/05/11 10:33:12;;;;;;;3.33;0.88;;;23.70;58.30;;;;;;5110690;27;20059;-80
2022/05/11 10:36:00;;;;;;;5.95;1.02;;;23.70;57.70;;;;;;5122307;27;20088;-79
2022/05/11 10:38:47;;;;;;;3.42;0.73;;;23.80;58.40;;;;;;5108576;27;20401;-80
2022/05/11 10:41:36;;;;;;;4.18;0.77;;;23.80;58.10;;;;;;5123475;27;20107;-81
2022/05/11 10:44:23;;;;;;;2.47;0.68;;;23.80;55.80;;;;;;5127778;27;20039;-81
2022/05/11 10:47:17;;;;;;;4.97;0.98;;;23.60;56.90;;;;;;5125447;27;20091;-81
2022/05/11 10:50:06;;;;;;;8.38;1.23;;;23.50;57.60;;;;;;5124120;27;20053;-80
2022/05/11 10:52:50;;;;;;;3.83;0.98;;;23.40;56.60;;;;;;5126379;27;20074;-81
2022/05/11 10:55:32;;;;;;;3.83;0.82;;;23.50;57.20;;;;;;5107815;27;20043;-80
2022/05/11 10:58:31;;;;;;;2.03;0.75;;;23.60;56.60;;;;;;5104711;27;20067;-81
2022/05/11 11:01:08;;;;;;;3.75;0.80;;;23.70;55.90;;;;;;5102375;27;20047;-78
2022/05/11 11:03:33;;;;;;;11.23;1.52;;;23.80;57.50;;;;;;5122142;27;20043;-81
2022/05/11 11:08:53;;;;;;;6.60;1.27;;;23.60;58.20;;;;;;5121546;27;20043;-79
2022/05/11 11:11:43;;;;;;;3.58;0.70;;;23.50;58.10;;;;;;5119013;27;20121;-80
2022/05/11 11:14:10;;;;;;;2.75;0.90;;;23.60;58.30;;;;;;5102233;27;20147;-80
2022/05/11 11:16:38;;;;;;;7.43;1.33;;;23.60;57.80;;;;;;5102869;27;20088;-80
2022/05/11 11:19:06;;;;;;;4.80;1.42;;;23.80;58.20;;;;;;5120490;27;20039;-80
2022/05/11 11:21:32;;;;;;;3.05;0.73;;;23.90;59.10;;;;;;5121966;27;20047;-80
2022/05/11 11:24:23;;;;;;;7.00;1.20;;;23.80;58.20;;;;;;5121105;27;20043;-80
2022/05/11 11:27:03;;;;;;;5.65;1.38;;;23.80;58.80;;;;;;5140000;27;20032;-80
2022/05/11 11:29:31;;;;;;;5.25;1.17;;;23.90;60.30;;;;;;5141573;27;20066;-80
2022/05/11 11:31:57;;;;;;;7.22;1.35;;;24.00;58.90;;;;;;5123603;27;20039;-80
2022/05/11 11:34:27;;;;;;;3.40;1.20;;;23.90;59.10;;;;;;5104001;27;20088;-79
2022/05/11 11:36:53;;;;;;;3.65;0.93;;;24.00;59.50;;;;;;5119682;27;20124;-80
2022/05/11 11:39:44;;;;;;;9.68;1.45;;;24.00;59.20;;;;;;5122043;27;20567;-80
2022/05/11 11:42:10;;;;;;;10.05;1.60;;;24.00;59.20;;;;;;5104091;27;20159;-80
2022/05/11 11:44:46;;;;;;;7.25;1.83;;;24.00;59.60;;;;;;5120784;27;20031;-81
2022/05/11 11:47:39;;;;;;;8.13;1.30;;;24.00;60.00;;;;;;5121904;27;20043;-80
2022/05/11 11:50:11;;;;;;;7.32;1.90;;;23.90;58.20;;;;;;5109542;27;20391;-79
2022/05/11 11:52:46;;;;;;;6.40;1.23;;;23.90;60.40;;;;;;5119186;27;20169;-80
2022/05/11 11:55:30;;;;;;;5.95;1.33;;;24.00;60.80;;;;;;5118998;27;20049;-79
2022/05/11 11:58:11;;;;;;;7.85;1.20;;;24.00;59.80;;;;;;5117506;27;20401;-79
2022/05/11 12:00:46;;;;;;;4.22;1.33;;;24.10;59.40;;;;;;5117747;27;20047;-79
2022/05/11 12:03:23;;;;;;;8.32;1.20;;;24.10;61.00;;;;;;5138144;27;20043;-78
2022/05/11 12:05:52;;;;;;;8.82;1.33;;;23.80;58.80;;;;;;5118829;27;20124;-79
2022/05/11 12:17:02;;;;;;;8.82;1.58;;;24.00;58.60;;;;;;5119950;27;20082;-80
2022/05/11 12:19:33;;;;;;;6.10;1.48;;;23.90;59.40;;;;;;5118467;27;20095;-79
2022/05/11 12:22:04;;;;;;;8.27;2.00;;;24.10;59.40;;;;;;5119497;27;20043;-80
2022/05/11 12:24:38;;;;;;;7.75;1.42;;;24.20;59.10;;;;;;5118674;27;20039;-80
2022/05/11 12:27:12;;;;;;;9.48;1.55;;;24.20;59.10;;;;;;5118867;27;20039;-80
2022/05/11 12:29:58;;;;;;;7.30;1.30;;;24.40;58.60;;;;;;5118424;27;20414;-79
2022/05/11 12:32:40;;;;;;;5.07;1.42;;;24.20;56.10;;;;;;5117894;27;20047;-79
2022/05/11 12:35:12;;;;;;;;;;;24.10;56.60;;;;;;5118683;27;20473;-79
2022/05/11 12:37:37;;;;;;;;;;;24.00;58.00;;;;;;5117548;27;19916;-79
2022/05/11 12:40:14;;;;;;;4.53;1.30;;;24.00;56.40;;;;;;5098606;27;20442;-79
2022/05/11 12:42:47;;;;;;;6.53;0.98;;;23.80;57.40;;;;;;5099623;27;20062;-79
2022/05/11 12:45:15;;;;;;;4.35;1.58;;;23.90;56.20;;;;;;5119938;27;20087;-79
2022/05/11 12:47:48;;;;;;;5.63;1.10;;;23.90;57.50;;;;;;5117952;27;20257;-78
2022/05/11 12:50:23;;;;;;;6.50;1.23;;;24.00;57.30;;;;;;5101097;27;20087;-80
2022/05/11 12:53:19;;;;;;;14.10;2.33;;;24.10;58.30;;;;;;5106526;27;20163;-78
2022/05/11 12:55:54;;;;;;;10.07;1.42;;;24.20;57.10;;;;;;5136421;27;20051;-80
2022/05/11 12:58:23;;;;;;;9.30;1.63;;;24.10;57.70;;;;;;5136678;27;20078;-80
2022/05/11 13:00:57;;;;;;;7.18;1.67;;;24.10;57.90;;;;;;5126701;27;20126;-80
2022/05/11 13:03:27;;;;;;;8.73;1.83;;;24.00;58.60;;;;;;5120121;27;20038;-79
2022/05/11 13:05:56;;;;;;;8.60;1.55;;;24.00;57.20;;;;;;5101103;27;20079;-79
2022/05/11 13:08:22;;;;;;;8.77;1.70;;;24.00;56.80;;;;;;5115695;27;20050;-79
2022/05/11 13:10:49;;;;;;;6.43;1.38;;;23.90;57.20;;;;;;5097456;27;20082;-79
2022/05/11 13:13:25;;;;;;;6.93;1.58;;;23.90;58.30;;;;;;5114600;27;20508;-80
2022/05/11 13:15:52;;;;;;;6.43;1.55;;;24.00;58.50;;;;;;5114677;27;20304;-81
2022/05/11 13:18:29;;;;;;;6.60;1.00;;;24.00;58.80;;;;;;5114642;27;20398;-79
2022/05/11 13:21:00;;;;;;;7.47;1.88;;;24.00;58.60;;;;;;5132408;27;20054;-79
2022/05/11 13:23:33;;;;;;;7.10;1.13;;;23.90;57.80;;;;;;5114732;28;20482;-80
2022/05/11 13:26:01;;;;;;;9.07;1.42;;;23.80;57.80;;;;;;5115070;28;20047;-79
2022/05/11 13:28:30;;;;;;;5.53;1.50;;;23.80;58.80;;;;;;5114459;28;20046;-79
2022/05/11 13:30:59;;;;;;;8.48;1.50;;;23.90;58.60;;;;;;5097129;28;20043;-80
2022/05/11 13:33:39;;;;;;;10.75;2.25;;;23.80;59.40;;;;;;5113796;27;20035;-80
2022/05/11 13:36:20;;;;;;;7.57;1.52;;;23.80;59.60;;;;;;5097375;28;20472;-80
2022/05/11 13:38:57;;;;;;;6.32;1.23;;;23.90;59.50;;;;;;5097216;28;20454;-80
2022/05/11 13:41:29;;;;;;;6.68;1.42;;;23.80;58.30;;;;;;5096427;28;20043;-80
2022/05/11 13:44:01;;;;;;;11.77;1.58;;;23.90;58.20;;;;;;5114505;28;20093;-80
2022/05/11 13:49:47;;;;;;;9.35;1.80;;;23.60;59.20;;;;;;5113851;28;20054;-80